Bernardo, New Mexico
Current Conditions -  °F | °C
As of 5:52 AM on Monday 20 Oct 2014 (Local Time) from KABQ Reporting Station
Few Clouds Few Clouds  
Wind Chill: 49°   Ceiling: Unl
Heat Index: 49°   Visibility: 10mi
Dew Point: 42°   Wind: 0mph
Humidity: 77%   Direction: NA
Pressure: 30.19"   Gusts: NA
Location:  34.4828°N, 106.804°W
Report Text: KABQ 201152Z 00000KT 10SM FEW060 09/06 A3019 RMK AO2 SLP181 T00940056 10128 20089 53002
Loading
Personal Weather Stations






























Interactive Weather Map
Tropical Storm Tracking
New forecast layout! Learn more

10-Day Weather Forecast

Advertisements
Track Severe Weather on mobile